createdAt,value
2019-02-21T00:01:30.812Z,81.31
2019-02-21T00:04:01.037Z,81.33
2019-02-21T00:06:31.256Z,81.58
2019-02-21T00:09:01.421Z,81.31
2019-02-21T00:11:31.540Z,81.16
2019-02-21T00:14:01.772Z,81.29
2019-02-21T00:16:31.967Z,81.14
2019-02-21T00:19:02.133Z,80.72
2019-02-21T00:21:32.225Z,80.98
2019-02-21T00:24:02.392Z,80.87
2019-02-21T00:26:32.525Z,80.90
2019-02-21T00:29:02.774Z,80.73
2019-02-21T00:31:32.927Z,80.67
2019-02-21T00:34:03.106Z,80.75
2019-02-21T00:36:33.238Z,80.66
2019-02-21T00:39:05.113Z,80.60
2019-02-21T00:41:35.311Z,80.67
2019-02-21T00:44:05.562Z,80.56
2019-02-21T00:46:35.775Z,80.56
2019-02-21T00:49:06.005Z,80.47
2019-02-21T00:51:37.225Z,80.70
2019-02-21T00:54:07.478Z,80.61
2019-02-21T00:56:37.681Z,80.82
2019-02-21T00:59:07.999Z,80.69
2019-02-21T01:01:38.215Z,80.82
2019-02-21T01:04:08.436Z,80.84
2019-02-21T01:06:38.632Z,80.90
2019-02-21T01:09:08.893Z,81.38
2019-02-21T01:11:39.097Z,81.13
2019-02-21T01:14:09.268Z,80.96
2019-02-21T01:16:39.481Z,81.10
2019-02-21T01:19:09.687Z,81.17
2019-02-21T01:21:39.969Z,81.10
2019-02-21T01:24:10.218Z,81.09
2019-02-21T01:26:40.421Z,81.23
2019-02-21T01:29:10.632Z,81.06
2019-02-21T01:31:40.824Z,81.03
2019-02-21T01:34:11.094Z,81.00
2019-02-21T01:36:41.309Z,80.96
2019-02-21T01:39:11.553Z,80.78
2019-02-21T01:41:41.725Z,80.49
2019-02-21T01:44:12.703Z,80.56
2019-02-21T01:46:42.887Z,80.72
2019-02-21T01:49:13.132Z,80.45
2019-02-21T01:51:44.256Z,80.84
2019-02-21T01:54:14.501Z,80.74
2019-02-21T01:56:44.698Z,80.76
2019-02-21T01:59:14.948Z,80.60
2019-02-21T02:01:45.069Z,80.37
2019-02-21T02:04:15.320Z,80.13
2019-02-21T02:06:45.530Z,80.19
2019-02-21T02:09:15.798Z,80.01
2019-02-21T02:11:45.973Z,80.05
2019-02-21T02:14:16.190Z,80.09
2019-02-21T02:16:46.299Z,79.88
2019-02-21T02:19:16.459Z,79.64
2019-02-21T02:21:46.484Z,79.79
2019-02-21T02:24:16.753Z,79.96
2019-02-21T02:26:46.950Z,79.96
2019-02-21T02:29:17.198Z,80.22
2019-02-21T02:31:48.404Z,80.02
2019-02-21T02:34:18.676Z,80.16
2019-02-21T02:36:48.851Z,80.13
2019-02-21T02:39:19.102Z,79.73
2019-02-21T02:41:49.306Z,79.67
2019-02-21T02:44:19.528Z,80.32
2019-02-21T02:46:49.744Z,80.05
2019-02-21T02:49:19.920Z,79.85
2019-02-21T02:51:51.123Z,79.90
2019-02-21T02:54:21.371Z,79.79
2019-02-21T02:56:51.570Z,79.74
2019-02-21T02:59:21.950Z,79.80
2019-02-21T03:01:52.157Z,79.65
2019-02-21T03:04:22.454Z,79.92
2019-02-21T03:06:52.700Z,79.62
2019-02-21T03:09:22.893Z,80.02
2019-02-21T03:11:53.021Z,79.55
2019-02-21T03:14:23.197Z,79.30
2019-02-21T03:16:53.435Z,79.16
2019-02-21T03:19:23.604Z,79.10
2019-02-21T03:21:53.798Z,79.34
2019-02-21T03:24:24.055Z,79.23
2019-02-21T03:26:54.261Z,78.98
2019-02-21T03:29:24.479Z,79.15
2019-02-21T03:31:56.113Z,79.24
2019-02-21T03:34:26.740Z,79.08
2019-02-21T03:36:56.959Z,79.32
2019-02-21T03:39:27.186Z,79.42
2019-02-21T03:41:57.404Z,79.38
2019-02-21T03:44:27.757Z,79.11
2019-02-21T03:46:57.955Z,79.23
2019-02-21T03:49:28.217Z,79.29
2019-02-21T03:51:59.273Z,78.97
2019-02-21T03:54:29.507Z,78.73
2019-02-21T03:56:59.709Z,78.47
2019-02-21T03:59:29.988Z,78.55
2019-02-21T04:02:05.431Z,78.60
2019-02-21T04:04:31.920Z,78.57
2019-02-21T04:07:02.116Z,78.54
2019-02-21T04:09:32.301Z,78.42
2019-02-21T04:12:02.443Z,78.40
2019-02-21T04:14:32.897Z,77.88
2019-02-21T04:17:03.109Z,78.00
2019-02-21T04:19:33.289Z,77.96
2019-02-21T04:22:03.418Z,77.92
2019-02-21T04:24:33.561Z,77.73
2019-02-21T04:27:03.661Z,77.30
2019-02-21T04:29:34.127Z,76.96
2019-02-21T04:32:16.053Z,77.35
2019-02-21T04:34:36.134Z,77.04
2019-02-21T04:37:06.316Z,77.11
2019-02-21T04:39:36.549Z,77.32
2019-02-21T04:42:06.703Z,77.11
2019-02-21T04:44:36.912Z,77.11
2019-02-21T04:47:07.043Z,77.36
2019-02-21T04:49:37.199Z,77.14
2019-02-21T04:52:08.463Z,76.97
2019-02-21T04:54:38.682Z,76.70
2019-02-21T04:57:08.729Z,76.37
2019-02-21T04:59:39.500Z,76.62
2019-02-21T05:02:09.685Z,76.73
2019-02-21T05:04:39.940Z,76.39
2019-02-21T05:07:10.134Z,76.88
2019-02-21T05:09:40.289Z,76.41
2019-02-21T05:12:10.493Z,76.58
2019-02-21T05:14:40.723Z,76.83
2019-02-21T05:17:10.929Z,76.75
2019-02-21T05:19:41.170Z,76.77
2019-02-21T05:22:11.341Z,76.84
2019-02-21T05:24:41.591Z,76.61
2019-02-21T05:27:13.380Z,76.79
2019-02-21T05:29:43.652Z,76.69
2019-02-21T05:32:15.431Z,76.57
2019-02-21T05:34:47.261Z,76.48
2019-02-21T05:37:35.088Z,76.23
2019-02-21T05:40:07.105Z,76.46
2019-02-21T05:42:44.904Z,76.46
2019-02-21T05:45:25.619Z,76.06
2019-02-21T05:48:06.312Z,76.39
2019-02-21T05:50:44.131Z,76.76
2019-02-21T05:53:22.679Z,76.14
2019-02-21T05:55:57.237Z,76.26
2019-02-21T05:58:29.019Z,76.22
2019-02-21T06:01:10.031Z,76.25
2019-02-21T06:03:44.488Z,75.68
2019-02-21T06:06:19.059Z,75.57
2019-02-21T06:08:53.481Z,75.29
2019-02-21T06:11:28.168Z,74.92
2019-02-21T06:13:59.880Z,75.02
2019-02-21T06:16:43.567Z,74.37
2019-02-21T06:19:15.254Z,73.88
2019-02-21T06:22:10.522Z,73.33
2019-02-21T06:24:38.233Z,73.52
2019-02-21T06:27:15.577Z,72.77
2019-02-21T06:29:47.345Z,72.69
2019-02-21T06:32:17.593Z,72.88
2019-02-21T06:34:47.798Z,72.29
2019-02-21T06:37:17.977Z,72.33
2019-02-21T06:39:48.151Z,72.03
2019-02-21T06:42:18.390Z,71.77
2019-02-21T06:44:48.511Z,71.66
2019-02-21T06:47:18.770Z,71.06
2019-02-21T06:49:48.953Z,70.45
2019-02-21T06:52:19.203Z,70.65
2019-02-21T06:54:50.286Z,70.61
2019-02-21T06:57:20.462Z,70.32
2019-02-21T06:59:50.664Z,69.59
2019-02-21T07:02:21.001Z,69.60
2019-02-21T07:04:51.136Z,68.92
2019-02-21T07:07:21.307Z,68.83
2019-02-21T07:09:51.528Z,68.46
2019-02-21T07:12:21.755Z,68.03
2019-02-21T07:14:51.951Z,68.04
2019-02-21T07:17:22.222Z,68.11
2019-02-21T07:19:52.454Z,68.28
2019-02-21T07:22:22.721Z,68.70
2019-02-21T07:24:54.526Z,68.74
2019-02-21T07:27:24.813Z,69.37
2019-02-21T07:29:55.096Z,70.13
2019-02-21T07:32:25.370Z,69.10
2019-02-21T07:34:57.189Z,69.43
2019-02-21T07:37:27.467Z,69.34
2019-02-21T07:39:57.673Z,68.70
2019-02-21T07:42:27.946Z,67.32
2019-02-21T07:44:59.743Z,66.16
2019-02-21T07:47:30.041Z,66.49
2019-02-21T07:50:00.337Z,64.78
2019-02-21T07:52:32.028Z,64.27
2019-02-21T07:55:03.061Z,63.78
2019-02-21T07:57:33.329Z,63.57
2019-02-21T08:00:04.046Z,63.83
2019-02-21T08:02:34.403Z,62.60
2019-02-21T08:05:07.521Z,63.11
2019-02-21T08:07:37.841Z,63.19
2019-02-21T08:10:10.649Z,62.61
2019-02-21T08:12:40.948Z,62.23
2019-02-21T08:15:12.531Z,61.93
2019-02-21T08:17:42.822Z,60.56
2019-02-21T08:20:13.131Z,59.10
2019-02-21T08:22:43.301Z,59.43
2019-02-21T08:25:13.431Z,58.65
2019-02-21T08:27:43.609Z,57.23
2019-02-21T08:30:15.415Z,53.98
2019-02-21T08:33:05.701Z,54.26
2019-02-21T08:35:35.951Z,53.83
2019-02-21T08:38:08.643Z,52.28
2019-02-21T08:40:40.393Z,52.96
2019-02-21T08:43:13.590Z,52.73
2019-02-21T08:45:43.793Z,53.93
2019-02-21T08:48:14.033Z,54.66
2019-02-21T08:50:44.209Z,54.48
2019-02-21T08:53:14.434Z,54.78
2019-02-21T08:55:45.643Z,55.25
2019-02-21T08:58:17.228Z,54.33
2019-02-21T09:00:54.311Z,53.29
2019-02-21T09:03:27.911Z,52.90
2019-02-21T09:05:58.022Z,50.30
2019-02-21T09:08:33.517Z,50.26
2019-02-21T09:11:00.142Z,50.23
2019-02-21T09:13:30.393Z,48.24
2019-02-21T09:16:00.817Z,48.11
2019-02-21T09:18:31.082Z,49.35
2019-02-21T09:21:01.973Z,48.83
2019-02-21T09:23:33.316Z,50.32
2019-02-21T09:26:03.511Z,50.90
2019-02-21T09:28:33.809Z,50.21
2019-02-21T09:31:04.061Z,50.03
2019-02-21T09:33:34.303Z,50.62
2019-02-21T09:36:04.722Z,50.33
2019-02-21T09:38:36.659Z,51.74
2019-02-21T09:41:07.657Z,52.35
2019-02-21T09:43:41.900Z,52.66
2019-02-21T09:46:13.700Z,52.96
2019-02-21T09:48:45.528Z,53.21
2019-02-21T09:51:18.661Z,52.53
2019-02-21T09:53:55.765Z,53.40
2019-02-21T09:56:31.626Z,53.50
2019-02-21T10:57:01.608Z,50.35
2019-02-21T10:59:31.980Z,49.22
2019-02-21T11:02:02.262Z,47.56
2019-02-21T11:04:32.507Z,43.98
2019-02-21T11:07:06.058Z,45.45
2019-02-21T11:09:36.349Z,47.54
2019-02-21T11:12:06.587Z,46.69
2019-02-21T11:14:46.944Z,46.30
2019-02-21T11:17:10.720Z,47.31
2019-02-21T11:19:40.850Z,46.46
2019-02-21T11:22:11.030Z,45.19
2019-02-21T11:24:41.147Z,46.36
2019-02-21T11:27:11.438Z,48.44
2019-02-21T11:29:41.721Z,48.40
2019-02-21T11:32:11.954Z,47.88
2019-02-21T11:34:44.927Z,48.17
2019-02-21T11:37:15.182Z,47.80
2019-02-21T11:39:45.313Z,47.10
2019-02-21T11:42:26.906Z,46.14
2019-02-21T11:45:17.894Z,46.33
2019-02-21T11:50:43.823Z,47.25
2019-02-21T11:53:17.692Z,46.92
2019-02-21T11:56:18.849Z,48.61
2019-02-21T11:59:22.469Z,47.85
2019-02-21T12:02:15.229Z,48.14
2019-02-21T12:05:30.343Z,48.35
2019-02-21T12:08:28.773Z,48.73
2019-02-21T12:11:31.833Z,49.43
2019-02-21T12:14:36.292Z,49.58
2019-02-21T12:17:33.356Z,50.54
2019-02-21T12:20:38.849Z,49.61
2019-02-21T12:23:37.944Z,48.39
2019-02-21T12:26:56.769Z,49.01
2019-02-21T12:30:26.461Z,50.41
2019-02-21T12:33:35.782Z,50.54
2019-02-21T12:36:38.224Z,50.48
2019-02-21T12:43:27.908Z,49.00
2019-02-21T12:46:38.022Z,49.23
2019-02-21T12:49:39.721Z,49.73
2019-02-21T12:52:29.580Z,50.08
2019-02-21T12:59:12.561Z,51.60
2019-02-21T13:02:06.604Z,49.87
2019-02-21T13:04:53.293Z,50.88
2019-02-21T13:07:59.233Z,51.05
2019-02-21T13:10:42.387Z,50.33
2019-02-21T13:13:50.956Z,50.27
2019-02-21T13:17:05.948Z,49.64
2019-02-21T13:20:00.715Z,50.41
2019-02-21T13:22:49.406Z,50.14
2019-02-21T13:25:32.322Z,50.87
2019-02-21T13:31:36.326Z,51.96
2019-02-21T15:53:22.972Z,51.25
2019-02-21T15:55:53.428Z,50.93
2019-02-21T15:58:23.711Z,50.82
2019-02-21T16:00:53.974Z,50.80
2019-02-21T16:03:24.235Z,51.36
2019-02-21T16:05:54.511Z,51.21
2019-02-21T16:08:24.813Z,51.25
2019-02-21T16:10:55.752Z,49.51
2019-02-21T16:13:26.144Z,49.90
2019-02-21T16:15:56.496Z,49.97
2019-02-21T16:18:26.745Z,50.93
2019-02-21T16:20:56.987Z,50.19
2019-02-21T16:23:27.241Z,49.48
2019-02-21T16:25:57.439Z,50.06
2019-02-21T16:28:27.689Z,50.19
2019-02-21T16:30:58.352Z,49.92
2019-02-21T16:33:28.562Z,49.57
2019-02-21T16:35:58.783Z,50.30
2019-02-21T16:38:28.971Z,49.52
2019-02-21T16:40:59.223Z,49.89
2019-02-21T16:43:29.810Z,50.11
2019-02-21T16:46:07.845Z,49.84
2019-02-21T16:48:32.549Z,49.92
2019-02-21T16:51:02.820Z,50.12
2019-02-21T16:53:33.029Z,50.05
2019-02-21T16:56:03.436Z,51.16
2019-02-21T16:58:33.624Z,50.06
2019-02-21T17:01:03.781Z,50.34
2019-02-21T17:03:33.877Z,50.93
2019-02-21T17:06:04.044Z,50.76
2019-02-21T17:08:36.982Z,50.87
2019-02-21T17:11:07.216Z,51.08
2019-02-21T17:13:37.360Z,50.84
2019-02-21T17:16:07.497Z,51.35
2019-02-21T17:18:37.673Z,51.75
2019-02-21T17:21:07.881Z,51.44
2019-02-21T17:23:40.372Z,51.21
2019-02-21T17:26:10.529Z,51.95
2019-02-21T17:28:40.744Z,52.51
2019-02-21T17:31:11.016Z,51.37
2019-02-21T17:33:41.225Z,51.67
2019-02-21T17:36:11.543Z,52.21
2019-02-21T17:38:41.800Z,52.88
2019-02-21T17:41:12.054Z,52.65
2019-02-21T17:43:42.210Z,53.06
2019-02-21T17:46:12.480Z,53.26
2019-02-21T17:48:42.717Z,53.22
2019-02-21T17:51:12.886Z,53.57
2019-02-21T17:53:43.105Z,53.97
2019-02-21T17:56:13.479Z,53.76
2019-02-21T17:58:43.679Z,54.26
2019-02-21T18:01:13.852Z,53.81
2019-02-21T18:03:44.050Z,53.90
2019-02-21T18:06:14.203Z,54.96
2019-02-21T18:08:44.418Z,54.60
2019-02-21T18:11:14.681Z,53.66
2019-02-21T18:13:44.936Z,54.01
2019-02-21T18:16:15.206Z,54.41
2019-02-21T18:18:45.469Z,55.17
2019-02-21T18:21:15.645Z,54.68
2019-02-21T18:23:45.857Z,55.23
2019-02-21T18:26:16.719Z,55.33
2019-02-21T18:28:46.943Z,55.44
2019-02-21T18:31:17.190Z,55.63
2019-02-21T18:33:47.397Z,55.80
2019-02-21T18:36:17.607Z,55.78
2019-02-21T18:38:47.831Z,55.77
2019-02-21T18:41:18.065Z,55.99
2019-02-21T18:43:48.274Z,56.34
2019-02-21T18:46:18.495Z,56.02
2019-02-21T18:48:48.734Z,56.16
2019-02-21T18:51:19.040Z,57.03
2019-02-21T18:53:49.239Z,56.38
2019-02-21T18:56:19.583Z,57.00
2019-02-21T18:58:49.842Z,56.44
2019-02-21T19:01:20.139Z,56.45
2019-02-21T19:03:50.269Z,56.35
2019-02-21T19:06:20.460Z,57.24
2019-02-21T19:08:50.656Z,56.50
2019-02-21T19:11:20.936Z,56.68
2019-02-21T19:13:51.087Z,56.13
2019-02-21T19:16:21.499Z,56.19
2019-02-21T19:18:51.782Z,56.47
2019-02-21T19:21:22.037Z,56.45
2019-02-21T19:23:52.183Z,56.62
2019-02-21T19:26:22.252Z,56.97
2019-02-21T19:28:52.526Z,56.48
2019-02-21T19:31:22.786Z,56.78
2019-02-21T19:33:52.966Z,57.12
2019-02-21T19:36:23.242Z,57.22
2019-02-21T19:38:53.478Z,56.95
2019-02-21T19:41:23.782Z,57.31
2019-02-21T19:43:54.026Z,57.32
2019-02-21T19:46:24.343Z,57.53
2019-02-21T19:48:54.571Z,57.61
2019-02-21T19:51:24.830Z,57.07
2019-02-21T19:53:55.079Z,57.59
2019-02-21T19:56:25.677Z,57.32
2019-02-21T19:58:55.915Z,57.73
2019-02-21T20:01:26.167Z,57.47
2019-02-21T20:03:56.416Z,57.72
2019-02-21T20:06:26.672Z,57.66
2019-02-21T20:08:56.900Z,57.37
2019-02-21T20:11:27.231Z,57.91
2019-02-21T20:13:57.432Z,57.61
2019-02-21T20:16:27.807Z,58.35
2019-02-21T20:18:57.962Z,57.62
2019-02-21T20:21:28.250Z,57.34
2019-02-21T20:23:58.485Z,57.71
2019-02-21T20:26:28.819Z,57.40
2019-02-21T20:28:59.024Z,57.64
2019-02-21T20:31:29.329Z,57.98
2019-02-21T20:33:59.540Z,58.48
2019-02-21T20:36:29.758Z,58.29
2019-02-21T20:38:59.970Z,58.11
2019-02-21T20:41:30.234Z,58.24
2019-02-21T20:44:00.427Z,58.13
2019-02-21T20:46:30.509Z,59.35
2019-02-21T20:49:00.649Z,58.67
2019-02-21T20:51:30.837Z,58.34
2019-02-21T20:54:00.978Z,58.91
2019-02-21T20:56:31.288Z,59.20
2019-02-21T20:59:01.413Z,58.73
2019-02-21T21:01:31.717Z,58.89
2019-02-21T21:04:01.930Z,58.88
2019-02-21T21:06:32.181Z,59.98
2019-02-21T21:09:02.397Z,59.87
2019-02-21T21:11:32.570Z,59.87
2019-02-21T21:14:02.653Z,60.43
2019-02-21T21:16:32.911Z,60.36
2019-02-21T21:19:03.030Z,60.21
2019-02-21T21:21:33.206Z,59.59
2019-02-21T21:24:03.645Z,60.41
2019-02-21T21:26:33.838Z,59.69
2019-02-21T21:29:04.080Z,59.91
2019-02-21T21:31:34.196Z,60.15
2019-02-21T21:34:04.409Z,59.37
2019-02-21T21:36:34.740Z,59.28
2019-02-21T21:39:05.349Z,59.16
2019-02-21T21:41:35.387Z,59.52
2019-02-21T21:44:05.756Z,59.92
2019-02-21T21:46:36.073Z,59.37
2019-02-21T21:49:06.346Z,58.74
2019-02-21T21:51:36.661Z,58.82
2019-02-21T21:57:30.341Z,59.76
2019-02-21T22:00:00.649Z,61.17
2019-02-21T22:02:31.026Z,61.08
2019-02-21T22:05:01.295Z,61.73
2019-02-21T22:07:31.619Z,61.52
2019-02-21T22:10:01.852Z,61.36
2019-02-21T22:12:32.145Z,60.91
2019-02-21T22:15:02.436Z,60.42
2019-02-21T22:17:32.770Z,60.48
2019-02-21T22:20:02.998Z,60.24
2019-02-21T22:22:33.393Z,59.81
2019-02-21T22:25:04.014Z,58.75
2019-02-21T22:27:34.332Z,58.35
2019-02-21T22:30:06.179Z,58.86
2019-02-21T22:32:36.496Z,59.23
2019-02-21T22:35:07.628Z,60.11
2019-02-21T22:37:37.933Z,60.63
2019-02-21T22:40:10.470Z,59.83
2019-02-21T22:42:40.763Z,58.21
2019-02-21T22:45:11.098Z,58.45
2019-02-21T22:47:41.421Z,58.87
2019-02-21T22:50:17.377Z,58.35
2019-02-21T22:52:47.650Z,58.06
2019-02-21T22:55:17.899Z,57.72
2019-02-21T22:57:48.012Z,58.24
2019-02-21T23:00:31.900Z,57.49
2019-02-21T23:03:02.426Z,57.27
2019-02-21T23:05:52.448Z,57.77
2019-02-21T23:08:45.220Z,57.30
2019-02-21T23:11:15.536Z,57.55
2019-02-21T23:13:45.888Z,56.46
2019-02-21T23:19:12.401Z,57.04
2019-02-21T23:21:42.508Z,56.81
2019-02-21T23:24:12.742Z,57.14
2019-02-21T23:26:42.972Z,56.76
2019-02-21T23:29:13.247Z,56.32
2019-02-21T23:31:43.421Z,56.42
2019-02-21T23:34:15.241Z,56.75
2019-02-21T23:36:45.363Z,56.38
2019-02-21T23:39:15.700Z,56.52
2019-02-21T23:41:45.835Z,57.33
2019-02-21T23:44:16.084Z,57.78
2019-02-21T23:46:46.319Z,56.82
2019-02-21T23:49:16.446Z,57.60
2019-02-21T23:51:46.659Z,55.80
2019-02-21T23:54:16.812Z,56.32
2019-02-21T23:56:47.028Z,56.04
2019-02-21T23:59:17.239Z,56.66
